Time;durP1;ratioP1;P1;durP2;ratioP2;P2;SDS_P1;SDS_P2;PMS_P1;PMS_P2;Temp;Humidity;BMP_temperature;BMP_pressure;BME280_temperature;BME280_humidity;BME280_pressure;Samples;Min_cycle;Max_cycle;Signal;HPM_P1;HPM_P2
2021/01/19 12:06:21;;;;;;;33.47;16.67;;;77.60;1792.00;;;;;;5114268;27;20377;-67
2021/01/19 12:08:48;;;;;;;29.33;13.98;;;77.60;1792.00;;;;;;5114725;28;20095;-66
2021/01/19 12:11:15;;;;;;;30.08;16.08;;;102.60;1766.40;;;;;;5114093;28;20020;-65
2021/01/19 12:13:41;;;;;;;26.67;16.67;;;103.20;1689.60;;;;;;5114443;28;20028;-65
2021/01/19 12:16:08;;;;;;;31.95;17.85;;;103.00;1689.60;;;;;;5114847;28;20055;-66
2021/01/19 12:18:35;;;;;;;32.53;18.55;;;103.30;1689.60;;;;;;5114795;28;20035;-66
2021/01/19 12:21:03;;;;;;;27.33;13.43;;;128.80;1664.00;;;;;;5114702;28;20024;-66
2021/01/19 12:23:29;;;;;;;25.95;13.48;;;154.30;1561.60;;;;;;5114511;28;20030;-66
2021/01/19 12:25:58;;;;;;;24.95;14.23;;;179.20;1484.80;;;;;;5114578;28;20032;-66
2021/01/19 12:28:25;;;;;;;30.15;16.38;;;154.30;1536.00;;;;;;5114689;28;20062;-66
2021/01/19 12:30:52;;;;;;;122.20;53.13;;;179.40;1484.80;;;;;;5114229;28;20030;-66
2021/01/19 12:33:18;;;;;;;31.67;18.20;;;179.60;1510.40;;;;;;5103731;28;20020;-66
2021/01/19 12:35:44;;;;;;;29.08;15.77;;;205.20;1433.60;;;;;;5102205;28;20406;-66
2021/01/19 12:38:10;;;;;;;26.40;17.08;;;204.80;1408.00;;;;;;5107405;28;20098;-67
2021/01/19 12:40:36;;;;;;;27.65;16.25;;;179.90;1459.20;;;;;;5113431;28;20024;-67
2021/01/19 12:43:02;;;;;;;24.67;15.15;;;180.00;1433.60;;;;;;5114319;28;20027;-67
2021/01/19 12:45:28;;;;;;;28.83;16.25;;;179.60;1459.20;;;;;;5113714;28;20069;-67
2021/01/19 12:47:53;;;;;;;26.33;15.30;;;204.80;1433.60;;;;;;5114149;28;20385;-67
2021/01/19 12:50:19;;;;;;;21.17;14.30;;;230.40;1408.00;;;;;;5113926;28;20033;-66
2021/01/19 12:52:45;;;;;;;19.17;13.82;;;256.10;1305.60;;;;;;5113254;28;20113;-66
2021/01/19 12:55:12;;;;;;;24.50;15.10;;;231.20;1280.00;;;;;;5113793;28;20165;-66
2021/01/19 12:57:39;;;;;;;21.65;14.82;;;231.00;1305.60;;;;;;5113763;28;20421;-66
2021/01/19 13:00:06;;;;;;;20.27;13.80;;;256.60;1254.40;;;;;;5113551;28;20020;-66
2021/01/19 13:02:33;;;;;;;17.15;12.50;;;256.90;1203.20;;;;;;5113905;28;20050;-66
2021/01/19 13:05:02;;;;;;;25.63;16.70;;;282.40;1177.60;;;;;;5112633;28;20348;-67
2021/01/19 13:07:28;;;;;;;31.67;19.65;;;307.70;1177.60;;;;;;5113196;28;20059;-65
2021/01/19 13:09:54;;;;;;;16.77;12.10;;;332.80;1152.00;;;;;;5113386;28;20034;-66
2021/01/19 13:12:20;;;;;;;18.60;12.75;;;282.40;1152.00;;;;;;5113867;28;20326;-66
2021/01/19 13:14:47;;;;;;;18.42;12.25;;;332.90;1126.40;;;;;;5113487;28;20081;-65
2021/01/19 13:17:14;;;;;;;16.95;12.68;;;332.80;1126.40;;;;;;5101949;28;20332;-65
2021/01/19 13:19:40;;;;;;;18.55;13.45;;;307.80;1126.40;;;;;;5099578;28;20031;-67
2021/01/19 13:22:06;;;;;;;16.70;12.32;;;282.40;1152.00;;;;;;5099100;28;20349;-66
2021/01/19 13:24:32;;;;;;;21.98;13.27;;;307.30;1177.60;;;;;;5098911;28;20036;-67
2021/01/19 13:26:58;;;;;;;22.40;16.25;;;307.30;1177.60;;;;;;5096136;28;20031;-67
2021/01/19 13:29:25;;;;;;;42.72;29.10;;;282.10;1126.40;;;;;;5098690;28;20023;-66
2021/01/19 13:31:51;;;;;;;38.55;26.92;;;281.90;1152.00;;;;;;5099549;28;20028;-67
2021/01/19 13:34:17;;;;;;;43.97;30.35;;;281.70;1152.00;;;;;;5098962;28;20350;-67
2021/01/19 13:36:44;;;;;;;28.10;20.05;;;282.50;1100.80;;;;;;5098996;28;20024;-67
2021/01/19 13:39:11;;;;;;;20.27;14.45;;;333.60;1049.60;;;;;;5099530;28;20032;-66
2021/01/19 13:41:37;;;;;;;25.77;17.42;;;333.50;1049.60;;;;;;5098149;28;20333;-66
2021/01/19 13:44:03;;;;;;;28.17;18.13;;;333.00;1075.20;;;;;;5099108;28;20024;-66
2021/01/19 13:46:31;;;;;;;36.90;24.23;;;307.90;1075.20;;;;;;5095343;28;20097;-65
2021/01/19 13:48:57;;;;;;;29.58;21.38;;;282.40;1100.80;;;;;;5098466;28;20019;-65
2021/01/19 13:51:28;;;;;;;26.13;17.17;;;282.10;1126.40;;;;;;5097377;28;20111;-69
2021/01/19 13:53:54;;;;;;;22.90;16.55;;;281.60;1152.00;;;;;;5087772;28;20031;-66
2021/01/19 13:56:21;;;;;;;25.08;18.05;;;307.70;1100.80;;;;;;5087893;28;20341;-65
2021/01/19 13:58:47;;;;;;;29.45;21.25;;;358.70;998.40;;;;;;5090189;28;20024;-66
2021/01/19 14:01:12;;;;;;;19.08;13.40;;;358.40;1049.60;;;;;;5089114;28;20337;-66
2021/01/19 14:03:38;;;;;;;16.58;11.73;;;333.60;1049.60;;;;;;5089058;28;20127;-66
2021/01/19 14:06:04;;;;;;;19.05;12.82;;;333.00;1075.20;;;;;;5094868;28;20098;-66
2021/01/19 14:08:35;;;;;;;24.52;16.92;;;307.60;1075.20;;;;;;5092487;28;20109;-65
2021/01/19 14:11:01;;;;;;;34.80;20.60;;;282.50;1100.80;;;;;;5095696;28;20035;-66
2021/01/19 14:13:27;;;;;;;26.30;18.58;;;282.00;1126.40;;;;;;5097892;28;20024;-66
2021/01/19 14:15:53;;;;;;;20.35;14.82;;;307.20;1100.80;;;;;;5096182;28;20081;-67
2021/01/19 14:18:18;;;;;;;26.27;18.42;;;333.00;1049.60;;;;;;5097685;28;20024;-66
2021/01/19 14:20:44;;;;;;;26.05;19.73;;;358.70;1024.00;;;;;;5098658;28;20382;-66
2021/01/19 14:23:10;;;;;;;23.00;17.23;;;384.10;947.20;;;;;;5097937;28;20047;-65
2021/01/19 14:25:35;;;;;;;34.67;23.02;;;358.60;998.40;;;;;;5088230;28;20476;-65
2021/01/19 14:28:01;;;;;;;82.60;45.85;;;308.00;1049.60;;;;;;5088358;28;20065;-66
2021/01/19 14:30:27;;;;;;;50.38;32.15;;;281.80;1100.80;;;;;;5097694;28;20024;-66
2021/01/19 14:32:53;;;;;;;52.40;30.77;;;256.20;1152.00;;;;;;5098735;28;20073;-66
2021/01/19 14:35:18;;;;;;;46.72;27.92;;;230.50;1228.80;;;;;;5098519;28;20107;-66
2021/01/19 14:37:44;;;;;;;40.35;24.65;;;205.20;1280.00;;;;;;5097796;28;20444;-65
2021/01/19 14:40:10;;;;;;;44.90;25.02;;;205.10;1305.60;;;;;;5098170;28;20449;-65
2021/01/19 14:42:36;;;;;;;29.90;17.50;;;205.10;1305.60;;;;;;5097953;28;20020;-65
2021/01/19 14:45:03;;;;;;;23.27;14.98;;;205.40;1280.00;;;;;;5087949;28;20037;-65
2021/01/19 14:47:29;;;;;;;27.48;13.98;;;205.20;1305.60;;;;;;5079056;28;20027;-65
2021/01/19 14:49:55;;;;;;;24.77;13.32;;;180.00;1356.80;;;;;;5093939;28;20115;-65
2021/01/19 14:52:21;;;;;;;26.08;16.25;;;179.50;1382.40;;;;;;5097877;28;20435;-65
2021/01/19 14:54:55;;;;;;;52.20;34.45;;;154.40;1433.60;;;;;;5098150;28;20045;-64
2021/01/19 14:57:21;;;;;;;48.58;29.42;;;153.70;1484.80;;;;;;5097726;28;20059;-66
2021/01/19 14:59:48;;;;;;;30.48;17.92;;;128.20;1561.60;;;;;;5097749;28;20053;-65
2021/01/19 15:02:14;;;;;;;29.50;17.77;;;103.00;1587.20;;;;;;5098166;28;20024;-64
2021/01/19 15:04:40;;;;;;;47.05;28.98;;;102.50;1664.00;;;;;;5097833;28;20106;-66
2021/01/19 15:07:05;;;;;;;42.08;25.55;;;77.50;1689.60;;;;;;5097482;28;20032;-65
2021/01/19 15:09:35;;;;;;;45.47;21.83;;;77.20;1740.80;;;;;;5098109;28;20038;-65
2021/01/19 15:12:11;;;;;;;33.88;21.70;;;76.80;1792.00;;;;;;5097462;28;20529;-65
2021/01/19 15:14:41;;;;;;;29.45;17.90;;;51.80;1843.20;;;;;;5097229;28;20342;-66
2021/01/19 15:17:07;;;;;;;29.33;16.88;;;51.50;1868.80;;;;;;5096871;28;20028;-65
2021/01/19 15:19:33;;;;;;;36.67;18.95;;;51.30;1920.00;;;;;;5097501;28;20024;-65
2021/01/19 15:22:05;;;;;;;43.00;23.60;;;26.20;1920.00;;;;;;5097420;28;20055;-66
2021/01/19 15:24:31;;;;;;;40.38;24.15;;;25.90;1971.20;;;;;;5096968;28;20237;-64
2021/01/19 15:26:57;;;;;;;39.42;23.77;;;25.70;2022.40;;;;;;5097031;28;20039;-65
2021/01/19 15:29:24;;;;;;;36.72;21.27;;;0.90;2073.60;;;;;;5097476;28;20050;-64
2021/01/19 15:31:50;;;;;;;31.35;16.73;;;0.70;2099.20;;;;;;5096456;28;20028;-65
2021/01/19 15:34:17;;;;;;;50.85;27.23;;;0.60;2124.80;;;;;;5097550;28;20016;-66
2021/01/19 15:36:44;;;;;;;43.28;23.38;;;0.40;2124.80;;;;;;5097429;28;20106;-66
2021/01/19 15:39:10;;;;;;;32.13;18.80;;;13.00;2176.00;;;;;;5097122;28;20141;-66
2021/01/19 15:41:36;;;;;;;31.45;17.58;;;13.20;2201.60;;;;;;5087794;28;20074;-65
2021/01/19 15:44:03;;;;;;;24.40;14.75;;;13.30;2201.60;;;;;;5085768;28;20024;-66
2021/01/19 15:46:31;;;;;;;23.88;12.95;;;13.60;2201.60;;;;;;5085245;28;20111;-65
2021/01/19 15:48:57;;;;;;;22.38;12.93;;;13.60;2201.60;;;;;;5085660;28;20102;-65
2021/01/19 15:51:24;;;;;;;28.17;15.52;;;13.70;2201.60;;;;;;5086419;28;20488;-65
2021/01/19 15:53:51;;;;;;;30.00;17.30;;;38.40;2201.60;;;;;;5083974;28;20024;-65
2021/01/19 15:56:34;;;;;;;34.85;20.17;;;38.50;2201.60;;;;;;5084841;28;20429;-66
2021/01/19 15:59:01;;;;;;;40.30;21.88;;;38.60;2201.60;;;;;;5088672;28;20036;-65
2021/01/19 16:01:28;;;;;;;53.22;29.02;;;38.60;2201.60;;;;;;5085103;28;20357;-65
2021/01/19 16:03:55;;;;;;;50.22;28.95;;;38.70;2201.60;;;;;;5092236;28;20035;-66
2021/01/19 16:06:21;;;;;;;37.13;21.90;;;38.70;2201.60;;;;;;5095560;28;20040;-66
2021/01/19 16:08:47;;;;;;;37.58;21.48;;;38.70;2201.60;;;;;;5095491;28;20077;-64
2021/01/19 16:11:13;;;;;;;39.35;20.35;;;38.70;2201.60;;;;;;5095421;28;20032;-65
2021/01/19 16:13:39;;;;;;;69.13;35.70;;;38.80;2201.60;;;;;;5094522;28;20027;-65
2021/01/19 16:16:08;;;;;;;35.60;20.35;;;38.90;2201.60;;;;;;5095568;28;20079;-64
2021/01/19 16:18:36;;;;;;;33.42;19.70;;;39.00;2201.60;;;;;;5092941;28;20336;-65
2021/01/19 16:21:02;;;;;;;33.40;17.40;;;39.00;2201.60;;;;;;5095688;28;20028;-64
2021/01/19 16:23:28;;;;;;;52.13;32.33;;;39.00;2201.60;;;;;;5095158;28;20027;-66
2021/01/19 16:25:56;;;;;;;43.63;24.75;;;39.10;2201.60;;;;;;5092344;28;20032;-65
2021/01/19 16:28:23;;;;;;;47.55;25.80;;;39.00;2201.60;;;;;;5096176;28;20496;-66
2021/01/19 16:30:51;;;;;;;38.38;19.15;;;39.00;2201.60;;;;;;5096081;28;20059;-65
2021/01/19 16:33:17;;;;;;;30.33;16.90;;;39.10;2201.60;;;;;;5096719;28;20020;-64
2021/01/19 16:35:43;;;;;;;48.35;27.38;;;39.10;2201.60;;;;;;5096787;28;20032;-65
2021/01/19 16:38:09;;;;;;;72.65;35.67;;;39.10;2201.60;;;;;;5096338;28;20134;-64
2021/01/19 16:40:35;;;;;;;55.40;28.52;;;39.10;2201.60;;;;;;5084821;28;20389;-64
2021/01/19 16:43:01;;;;;;;69.28;34.90;;;39.10;2201.60;;;;;;5075857;28;20029;-64
2021/01/19 16:45:27;;;;;;;54.38;28.08;;;39.10;2201.60;;;;;;5079142;28;20024;-65
2021/01/19 16:47:53;;;;;;;57.17;25.75;;;39.10;2201.60;;;;;;5095889;28;20028;-65
2021/01/19 16:50:23;;;;;;;39.28;19.65;;;39.20;2201.60;;;;;;5096683;28;20024;-65
2021/01/19 16:52:49;;;;;;;43.80;20.63;;;39.20;2201.60;;;;;;5098154;28;20345;-64
2021/01/19 16:55:15;;;;;;;33.63;18.20;;;39.30;2201.60;;;;;;5082811;28;20043;-65
2021/01/19 16:57:41;;;;;;;34.88;19.35;;;39.30;2201.60;;;;;;5096960;28;20473;-65
2021/01/19 17:00:07;;;;;;;35.08;19.10;;;39.30;2201.60;;;;;;5099190;28;20020;-64
2021/01/19 17:02:33;;;;;;;36.17;19.50;;;39.30;2201.60;;;;;;5099958;28;20108;-65
2021/01/19 17:04:59;;;;;;;41.90;23.98;;;39.30;2201.60;;;;;;5086311;28;20142;-65
2021/01/19 17:07:25;;;;;;;41.10;22.92;;;39.30;2201.60;;;;;;5079611;28;20029;-64
2021/01/19 17:09:50;;;;;;;34.60;21.30;;;39.30;2201.60;;;;;;5079556;28;20337;-64
2021/01/19 17:12:16;;;;;;;37.45;21.63;;;39.30;2201.60;;;;;;5079656;28;20056;-64
2021/01/19 17:14:42;;;;;;;38.05;19.92;;;64.00;2201.60;;;;;;5080149;28;20029;-64
2021/01/19 17:17:08;;;;;;;37.17;22.10;;;64.10;2201.60;;;;;;5079809;28;20060;-65
2021/01/19 17:19:33;;;;;;;49.55;28.38;;;64.10;2201.60;;;;;;5079400;28;20021;-65
2021/01/19 17:21:59;;;;;;;40.70;24.30;;;64.10;2201.60;;;;;;5079373;28;20029;-64
2021/01/19 17:24:25;;;;;;;35.53;19.05;;;64.10;2201.60;;;;;;5079744;28;20024;-65
2021/01/19 17:26:51;;;;;;;31.83;18.52;;;64.10;2201.60;;;;;;5079218;28;20059;-65
2021/01/19 17:29:17;;;;;;;30.10;18.58;;;64.00;2201.60;;;;;;5079861;28;20024;-64
2021/01/19 17:31:44;;;;;;;37.33;20.45;;;64.10;2201.60;;;;;;5078713;28;20024;-65
2021/01/19 17:34:11;;;;;;;34.97;19.83;;;64.10;2201.60;;;;;;5078892;28;20035;-64
2021/01/19 17:36:38;;;;;;;31.67;18.17;;;64.10;2201.60;;;;;;5079075;28;20103;-64
2021/01/19 17:39:05;;;;;;;34.30;18.73;;;64.20;2201.60;;;;;;5085113;28;20020;-64
2021/01/19 17:41:33;;;;;;;31.42;19.00;;;64.20;2201.60;;;;;;5099793;28;20398;-64
2021/01/19 17:44:01;;;;;;;22.27;12.93;;;64.20;2201.60;;;;;;5099574;28;20024;-65
2021/01/19 17:46:27;;;;;;;24.83;14.43;;;64.30;2201.60;;;;;;5099355;28;20071;-65
2021/01/19 17:48:53;;;;;;;22.63;12.93;;;64.20;2201.60;;;;;;5099590;28;20024;-64
2021/01/19 17:51:24;;;;;;;23.80;12.75;;;64.10;2201.60;;;;;;5099372;28;20093;-64
2021/01/19 17:53:52;;;;;;;23.65;14.52;;;64.10;2201.60;;;;;;5098954;28;20373;-65
2021/01/19 17:56:29;;;;;;;27.65;15.20;;;64.00;2201.60;;;;;;5098784;28;20111;-65
2021/01/19 17:58:55;;;;;;;28.00;15.30;;;64.10;2201.60;;;;;;5099378;28;20028;-65
2021/01/19 18:01:22;;;;;;;26.00;14.80;;;64.10;2201.60;;;;;;5093982;28;20032;-65
2021/01/19 18:03:54;;;;;;;26.45;15.63;;;64.00;2201.60;;;;;;5097828;28;20348;-64
2021/01/19 18:06:26;;;;;;;30.25;16.63;;;64.00;2201.60;;;;;;5098562;28;20040;-64
2021/01/19 18:08:53;;;;;;;25.08;14.95;;;64.00;2201.60;;;;;;5098092;28;20099;-64
2021/01/19 18:11:19;;;;;;;20.48;12.88;;;64.00;2201.60;;;;;;5098993;28;20020;-65
2021/01/19 18:13:45;;;;;;;25.27;14.23;;;64.00;2201.60;;;;;;5099112;28;20069;-64
2021/01/19 18:16:20;;;;;;;27.90;15.70;;;64.00;2201.60;;;;;;5090447;28;20468;-64
2021/01/19 18:18:46;;;;;;;25.48;15.02;;;64.00;2201.60;;;;;;5076319;28;20060;-65
2021/01/19 18:21:12;;;;;;;27.30;15.82;;;64.00;2201.60;;;;;;5095271;28;20449;-64
2021/01/19 18:23:38;;;;;;;25.27;15.70;;;64.00;2201.60;;;;;;5092812;28;20066;-65
2021/01/19 18:26:03;;;;;;;24.95;14.55;;;64.10;2201.60;;;;;;5094963;28;20425;-65
2021/01/19 18:28:29;;;;;;;90.32;46.45;;;64.10;2201.60;;;;;;5094260;28;20035;-64
2021/01/19 18:30:55;;;;;;;282.23;112.43;;;64.20;2201.60;;;;;;5084840;28;20020;-64
2021/01/19 18:33:22;;;;;;;53.55;31.00;;;64.20;2201.60;;;;;;5081289;28;20434;-64
2021/01/19 18:35:48;;;;;;;40.95;24.67;;;64.20;2201.60;;;;;;5086937;28;20032;-65
2021/01/19 18:38:15;;;;;;;42.53;22.65;;;64.20;2201.60;;;;;;5084219;28;20028;-64
2021/01/19 18:40:41;;;;;;;48.38;23.00;;;64.20;2201.60;;;;;;5085398;28;20069;-65
2021/01/19 18:43:07;;;;;;;28.77;16.65;;;64.30;2201.60;;;;;;5085224;28;20035;-64
2021/01/19 18:45:34;;;;;;;42.88;23.17;;;64.40;2201.60;;;;;;5083681;28;20128;-64
2021/01/19 18:48:00;;;;;;;36.67;19.80;;;64.30;2201.60;;;;;;5083606;28;20085;-64
2021/01/19 18:50:26;;;;;;;66.28;32.83;;;64.40;2201.60;;;;;;5087605;28;20031;-64
2021/01/19 18:52:53;;;;;;;39.97;25.60;;;64.40;2201.60;;;;;;5082569;28;20032;-64
2021/01/19 18:55:19;;;;;;;39.40;26.90;;;64.50;2201.60;;;;;;5084698;28;20024;-65
2021/01/19 18:57:46;;;;;;;60.25;33.53;;;64.50;2201.60;;;;;;5083472;28;20108;-64
2021/01/19 19:00:16;;;;;;;33.67;21.95;;;64.60;2201.60;;;;;;5084407;28;20030;-65
2021/01/19 19:02:43;;;;;;;23.00;14.57;;;64.60;2201.60;;;;;;5083631;28;20056;-64
2021/01/19 19:05:09;;;;;;;21.88;13.60;;;64.60;2201.60;;;;;;5086765;28;20434;-64
2021/01/19 19:07:42;;;;;;;26.17;16.58;;;64.70;2201.60;;;;;;5081482;28;20063;-64
2021/01/19 19:10:08;;;;;;;19.45;11.73;;;64.70;2201.60;;;;;;5085291;28;20028;-64
2021/01/19 19:12:34;;;;;;;17.50;10.63;;;64.70;2201.60;;;;;;5084723;28;20421;-65
2021/01/19 19:15:00;;;;;;;19.73;12.15;;;64.80;2201.60;;;;;;5086104;28;20039;-64
2021/01/19 19:17:26;;;;;;;19.10;11.95;;;64.80;2201.60;;;;;;5093396;28;20326;-64
2021/01/19 19:19:51;;;;;;;15.88;10.05;;;64.80;2201.60;;;;;;5091460;28;20594;-64
2021/01/19 19:22:17;;;;;;;19.27;13.15;;;64.80;2201.60;;;;;;5083894;28;20028;-64
2021/01/19 19:24:43;;;;;;;18.67;11.25;;;64.80;2201.60;;;;;;5084427;28;20376;-65
2021/01/19 19:27:09;;;;;;;17.02;11.25;;;64.80;2201.60;;;;;;5085269;28;20028;-65
2021/01/19 19:29:35;;;;;;;16.85;10.15;;;64.80;2201.60;;;;;;5081941;28;20468;-64
2021/01/19 19:32:01;;;;;;;19.75;11.07;;;64.70;2201.60;;;;;;5083641;28;20684;-64
2021/01/19 19:34:26;;;;;;;25.40;14.07;;;64.80;2201.60;;;;;;5082547;28;20109;-64
2021/01/19 19:36:52;;;;;;;23.80;10.73;;;64.80;2201.60;;;;;;5082885;28;20024;-65
2021/01/19 19:39:18;;;;;;;27.10;12.55;;;64.80;2201.60;;;;;;5087580;28;20414;-65
2021/01/19 19:41:45;;;;;;;62.35;31.80;;;64.90;2201.60;;;;;;5082583;28;20414;-65
2021/01/19 19:44:12;;;;;;;139.60;59.22;;;64.90;2201.60;;;;;;5084471;28;20031;-65
2021/01/19 19:46:41;;;;;;;59.85;31.10;;;89.60;2201.60;;;;;;5083916;28;20125;-64
2021/01/19 19:49:07;;;;;;;30.60;16.02;;;64.90;2201.60;;;;;;5088661;28;20043;-64
2021/01/19 19:51:33;;;;;;;20.83;11.70;;;64.90;2201.60;;;;;;5093470;28;20024;-65
2021/01/19 19:54:00;;;;;;;16.80;10.65;;;64.80;2201.60;;;;;;5091915;28;20105;-64
2021/01/19 19:56:27;;;;;;;20.13;10.20;;;64.80;2201.60;;;;;;5084704;28;20028;-64
2021/01/19 19:58:54;;;;;;;16.77;10.93;;;64.80;2201.60;;;;;;5080921;28;20032;-65
2021/01/19 20:01:23;;;;;;;34.38;20.80;;;64.70;2201.60;;;;;;5086176;28;20024;-64
2021/01/19 20:03:48;;;;;;;32.50;18.35;;;64.80;2201.60;;;;;;5086073;28;20310;-64
2021/01/19 20:06:15;;;;;;;22.65;13.00;;;64.70;2201.60;;;;;;5085350;28;20051;-65
2021/01/19 20:08:43;;;;;;;28.33;13.18;;;64.70;2201.60;;;;;;5081253;28;20060;-64
2021/01/19 20:11:13;;;;;;;21.48;9.95;;;64.70;2201.60;;;;;;5085286;28;20031;-65
2021/01/19 20:13:39;;;;;;;27.88;13.85;;;64.70;2201.60;;;;;;5084053;28;20016;-65
2021/01/19 20:16:08;;;;;;;18.60;10.75;;;64.80;2201.60;;;;;;5084099;28;20424;-66
2021/01/19 20:18:33;;;;;;;17.73;8.80;;;64.80;2201.60;;;;;;5084941;28;20103;-65
2021/01/19 20:21:01;;;;;;;19.42;10.07;;;64.70;2201.60;;;;;;5085148;28;20104;-65
2021/01/19 20:23:29;;;;;;;18.63;10.55;;;64.80;2201.60;;;;;;5084919;28;20465;-65
2021/01/19 20:25:55;;;;;;;18.88;10.82;;;64.80;2201.60;;;;;;5085068;28;20028;-66
2021/01/19 20:28:21;;;;;;;16.42;10.27;;;64.90;2201.60;;;;;;5088764;28;20024;-66
2021/01/19 20:30:48;;;;;;;26.35;17.27;;;89.60;2201.60;;;;;;5088319;28;20020;-66
2021/01/19 20:33:14;;;;;;;26.17;15.27;;;89.60;2201.60;;;;;;5085852;28;20389;-65
2021/01/19 20:35:40;;;;;;;18.10;10.25;;;89.70;2176.00;;;;;;5084370;28;20032;-65
2021/01/19 20:38:11;;;;;;;22.33;13.10;;;89.60;2201.60;;;;;;5095361;28;20024;-66
2021/01/19 20:40:37;;;;;;;19.20;11.25;;;89.70;2176.00;;;;;;5088310;28;20059;-65
2021/01/19 20:43:02;;;;;;;20.70;12.13;;;89.70;2176.00;;;;;;5087984;28;20033;-64
2021/01/19 20:45:28;;;;;;;26.60;15.07;;;89.80;2176.00;;;;;;5094737;28;20040;-65
2021/01/19 20:47:54;;;;;;;27.05;15.50;;;89.80;2176.00;;;;;;5093185;28;20020;-65
2021/01/19 20:50:20;;;;;;;29.73;16.77;;;89.90;2176.00;;;;;;5086226;28;20314;-65
2021/01/19 20:52:49;;;;;;;31.20;17.58;;;89.90;2176.00;;;;;;5092360;28;20035;-67
2021/01/19 20:55:16;;;;;;;;;;;89.90;2176.00;;;;;;5093084;28;20034;-65
2021/01/19 20:57:42;;;;;;;34.50;19.00;;;89.90;2176.00;;;;;;5095615;28;19923;-65
2021/01/19 21:00:17;;;;;;;21.90;12.55;;;89.90;2176.00;;;;;;5096053;28;20024;-65
2021/01/19 21:02:45;;;;;;;19.30;11.07;;;89.70;2176.00;;;;;;5092778;28;20049;-65
2021/01/19 21:05:12;;;;;;;17.88;8.88;;;89.70;2176.00;;;;;;5092911;28;20063;-64
2021/01/19 21:07:39;;;;;;;19.08;11.68;;;89.70;2176.00;;;;;;5078897;28;20028;-63
2021/01/19 21:10:06;;;;;;;39.45;21.27;;;89.70;2176.00;;;;;;5074226;28;20095;-64
2021/01/19 21:12:32;;;;;;;94.60;41.47;;;89.70;2176.00;;;;;;5081415;28;20041;-65
2021/01/19 21:14:58;;;;;;;69.78;33.10;;;89.80;2176.00;;;;;;5093992;28;20081;-65
2021/01/19 21:17:25;;;;;;;64.15;30.23;;;89.80;2176.00;;;;;;5094896;28;20051;-65
2021/01/19 21:19:51;;;;;;;192.38;82.43;;;89.90;2176.00;;;;;;5094785;28;20024;-65
2021/01/19 21:22:17;;;;;;;101.53;43.75;;;89.90;2176.00;;;;;;5094567;28;20024;-66
2021/01/19 21:24:46;;;;;;;197.95;80.90;;;89.90;2176.00;;;;;;5092250;28;20036;-66
2021/01/19 21:27:15;;;;;;;54.95;25.50;;;89.90;2176.00;;;;;;5088002;28;20345;-66
2021/01/19 21:29:42;;;;;;;39.08;21.10;;;90.00;2176.00;;;;;;5080070;28;20132;-65
2021/01/19 21:32:12;;;;;;;29.02;19.15;;;90.00;2176.00;;;;;;5080643;28;20486;-65
2021/01/19 21:34:40;;;;;;;18.48;11.10;;;90.00;2176.00;;;;;;5081469;28;20722;-65
2021/01/19 21:37:09;;;;;;;17.23;8.98;;;90.00;2176.00;;;;;;5079835;28;20026;-65
2021/01/19 21:39:37;;;;;;;17.98;9.73;;;90.10;2176.00;;;;;;5087924;28;20114;-66
2021/01/19 21:42:04;;;;;;;18.20;10.35;;;90.20;2176.00;;;;;;5089155;28;20026;-65
2021/01/19 21:44:31;;;;;;;15.45;9.50;;;90.20;2176.00;;;;;;5084977;28;20323;-65
2021/01/19 21:46:58;;;;;;;17.15;10.40;;;90.20;2176.00;;;;;;5086850;28;20027;-65
2021/01/19 21:49:24;;;;;;;14.07;8.52;;;90.20;2176.00;;;;;;5084695;28;20060;-66
2021/01/19 21:51:50;;;;;;;18.20;9.43;;;90.20;2176.00;;;;;;5088351;28;20111;-65
2021/01/19 21:54:17;;;;;;;12.68;7.43;;;90.20;2176.00;;;;;;5085958;28;20060;-65
2021/01/19 21:56:44;;;;;;;14.85;7.85;;;90.20;2176.00;;;;;;5089149;28;20016;-66
2021/01/19 21:59:10;;;;;;;11.77;7.18;;;90.20;2176.00;;;;;;5087965;28;20036;-67
2021/01/19 22:01:36;;;;;;;11.63;7.20;;;90.20;2176.00;;;;;;5096986;28;20035;-65
2021/01/19 22:04:02;;;;;;;14.73;7.32;;;90.20;2176.00;;;;;;5096822;28;20123;-64
2021/01/19 22:06:28;;;;;;;26.27;12.35;;;90.20;2176.00;;;;;;5096502;28;20189;-66
2021/01/19 22:08:55;;;;;;;24.67;11.35;;;90.10;2176.00;;;;;;5096319;28;20433;-66
2021/01/19 22:11:21;;;;;;;19.88;10.10;;;90.10;2176.00;;;;;;5095639;28;20027;-65
2021/01/19 22:13:46;;;;;;;15.07;8.40;;;90.10;2176.00;;;;;;5096037;28;20039;-66
2021/01/19 22:16:12;;;;;;;13.70;8.13;;;90.00;2176.00;;;;;;5094649;28;20035;-65
2021/01/19 22:18:38;;;;;;;24.20;13.07;;;90.00;2176.00;;;;;;5098110;28;20044;-65
2021/01/19 22:21:04;;;;;;;83.20;47.70;;;90.00;2176.00;;;;;;5096786;28;20039;-65
2021/01/19 22:23:30;;;;;;;50.70;30.42;;;90.10;2176.00;;;;;;5096766;28;20158;-65
2021/01/19 22:25:55;;;;;;;43.15;25.60;;;90.10;2176.00;;;;;;5096671;28;20067;-65
2021/01/19 22:28:21;;;;;;;33.58;21.35;;;90.20;2176.00;;;;;;5097800;28;20032;-65
2021/01/19 22:30:47;;;;;;;35.60;21.08;;;90.20;2176.00;;;;;;5098032;28;20398;-65
2021/01/19 22:33:13;;;;;;;53.33;35.13;;;90.20;2176.00;;;;;;5098166;28;20077;-66
2021/01/19 22:35:39;;;;;;;52.55;35.38;;;90.20;2176.00;;;;;;5098291;28;20075;-65
2021/01/19 22:38:05;;;;;;;36.47;25.50;;;90.20;2176.00;;;;;;5097664;28;20106;-65
2021/01/19 22:40:30;;;;;;;21.30;14.40;;;90.10;2176.00;;;;;;5097648;28;20460;-65
2021/01/19 22:42:56;;;;;;;25.33;15.00;;;90.20;2176.00;;;;;;5098829;28;20379;-65
2021/01/19 22:45:23;;;;;;;20.90;12.80;;;90.20;2176.00;;;;;;5098403;28;20318;-64
2021/01/19 22:47:48;;;;;;;23.55;13.25;;;90.20;2176.00;;;;;;5098158;28;20038;-65
2021/01/19 22:50:14;;;;;;;20.30;10.82;;;90.20;2176.00;;;;;;5097497;28;20107;-65
2021/01/19 22:52:41;;;;;;;17.05;8.93;;;90.20;2176.00;;;;;;5094557;28;20051;-66
2021/01/19 22:55:08;;;;;;;16.67;8.23;;;90.20;2176.00;;;;;;5097743;28;20024;-65
2021/01/19 22:57:33;;;;;;;20.23;9.38;;;90.20;2176.00;;;;;;5092181;28;20032;-65
2021/01/19 22:59:59;;;;;;;13.82;7.00;;;90.30;2176.00;;;;;;5098212;28;20088;-65
2021/01/19 23:02:25;;;;;;;17.73;7.38;;;90.30;2176.00;;;;;;5094218;28;20168;-66
2021/01/19 23:04:51;;;;;;;13.00;7.00;;;90.30;2176.00;;;;;;5079185;28;20343;-66
2021/01/19 23:07:17;;;;;;;12.68;6.43;;;90.40;2176.00;;;;;;5095760;28;20418;-66
2021/01/19 23:09:43;;;;;;;14.38;7.57;;;90.40;2176.00;;;;;;5095570;28;20024;-66
2021/01/19 23:12:09;;;;;;;13.75;7.50;;;90.40;2176.00;;;;;;5095698;28;20030;-67
2021/01/19 23:14:35;;;;;;;15.00;8.35;;;90.50;2176.00;;;;;;5095253;28;20038;-67
2021/01/19 23:17:01;;;;;;;13.57;6.90;;;90.50;2176.00;;;;;;5095395;28;20144;-65
2021/01/19 23:19:26;;;;;;;16.33;6.85;;;90.50;2176.00;;;;;;5095558;28;20049;-66
2021/01/19 23:21:52;;;;;;;14.07;7.75;;;90.50;2176.00;;;;;;5094159;28;20073;-66
2021/01/19 23:24:18;;;;;;;13.80;7.32;;;90.50;2176.00;;;;;;5095323;28;20703;-66
2021/01/19 23:26:44;;;;;;;12.60;7.07;;;90.50;2176.00;;;;;;5094897;28;20362;-66
2021/01/19 23:29:10;;;;;;;14.25;7.03;;;90.50;2176.00;;;;;;5095333;28;20082;-64
2021/01/19 23:31:36;;;;;;;13.55;7.10;;;115.20;2176.00;;;;;;5094847;28;20016;-64
2021/01/19 23:34:02;;;;;;;14.35;8.27;;;115.20;2176.00;;;;;;5095067;28;20497;-64
2021/01/19 23:36:28;;;;;;;14.15;6.60;;;115.20;2176.00;;;;;;5094572;28;20034;-65
2021/01/19 23:38:54;;;;;;;13.27;6.63;;;115.20;2176.00;;;;;;5094495;28;20115;-65
2021/01/19 23:41:20;;;;;;;14.15;6.80;;;90.50;2176.00;;;;;;5095695;28;20328;-62
2021/01/19 23:43:45;;;;;;;10.57;5.97;;;115.20;2176.00;;;;;;5094960;28;20032;-62
2021/01/19 23:46:11;;;;;;;9.63;5.78;;;90.50;2176.00;;;;;;5094740;28;20030;-62
2021/01/19 23:48:37;;;;;;;13.27;6.70;;;115.20;2176.00;;;;;;5095201;28;20058;-63
2021/01/19 23:51:03;;;;;;;20.85;9.68;;;115.20;2176.00;;;;;;5094565;28;20409;-61
2021/01/19 23:53:29;;;;;;;15.35;7.75;;;90.50;2176.00;;;;;;5095265;28;20035;-63
2021/01/19 23:55:55;;;;;;;11.60;6.38;;;90.50;2176.00;;;;;;5094190;28;20020;-63
2021/01/19 23:58:21;;;;;;;12.35;6.95;;;90.50;2176.00;;;;;;5095195;28;20024;-63
